Time;durP1;ratioP1;P1;durP2;ratioP2;P2;SDS_P1;SDS_P2;PMS_P1;PMS_P2;Temp;Humidity;BMP_temperature;BMP_pressure;BME280_temperature;BME280_humidity;BME280_pressure;Samples;Min_cycle;Max_cycle;Signal;HPM_P1;HPM_P2
2022/05/02 00:03:26;;;;;;;22.60;14.13;;;15.00;56.20;;;;;;6272371;22;20297;-95
2022/05/02 00:05:55;;;;;;;16.97;13.63;;;15.10;55.90;;;;;;6276527;22;20182;-96
2022/05/02 00:08:31;;;;;;;20.30;14.33;;;15.10;56.00;;;;;;6278636;22;20170;-95
2022/05/02 00:11:00;;;;;;;18.13;13.90;;;15.10;56.10;;;;;;6277863;22;20627;-95
2022/05/02 00:13:35;;;;;;;22.73;15.47;;;15.00;56.00;;;;;;6279933;22;20498;-96
2022/05/02 00:16:07;;;;;;;23.30;14.07;;;15.10;56.20;;;;;;6280292;22;20231;-96
2022/05/02 00:18:36;;;;;;;20.60;14.57;;;15.10;56.20;;;;;;6278409;22;20197;-96
2022/05/02 00:21:05;;;;;;;21.37;14.77;;;15.10;56.40;;;;;;6279053;22;20167;-96
2022/05/02 00:23:46;;;;;;;18.67;13.23;;;15.10;56.40;;;;;;6278795;22;20221;-96
2022/05/02 00:29:26;;;;;;;23.53;14.60;;;15.10;56.10;;;;;;6275424;22;20267;-96
2022/05/02 00:31:55;;;;;;;19.33;14.43;;;15.10;56.10;;;;;;6280888;22;20248;-96
2022/05/02 00:34:24;;;;;;;19.23;14.37;;;15.10;56.30;;;;;;6279600;22;20482;-96
2022/05/02 00:36:54;;;;;;;20.97;14.40;;;15.10;56.60;;;;;;6252612;22;20635;-96
2022/05/02 00:39:21;;;;;;;20.57;15.07;;;15.20;56.80;;;;;;6278590;22;20170;-96
2022/05/02 00:41:52;;;;;;;22.70;15.17;;;15.10;56.60;;;;;;6277830;22;20186;-96
2022/05/02 00:45:08;;;;;;;21.33;14.40;;;15.20;57.00;;;;;;6277583;22;20251;-96
2022/05/02 00:47:38;;;;;;;21.57;15.57;;;15.20;57.40;;;;;;6278890;22;20178;-96
2022/05/02 00:50:10;;;;;;;24.07;15.63;;;15.20;56.80;;;;;;6277320;22;20616;-96
2022/05/02 00:52:39;;;;;;;19.50;14.37;;;15.20;57.60;;;;;;6277528;22;20174;-96
2022/05/02 00:55:10;;;;;;;19.43;14.30;;;15.20;57.00;;;;;;6278813;22;20190;-96
2022/05/02 00:57:40;;;;;;;19.60;14.90;;;15.20;57.20;;;;;;6277812;22;20967;-96
2022/05/02 01:00:10;;;;;;;20.03;15.03;;;15.20;57.10;;;;;;6278198;22;20182;-96
2022/05/02 01:02:37;;;;;;;25.53;16.70;;;15.20;56.90;;;;;;6278786;22;20213;-95
2022/05/02 01:05:05;;;;;;;20.87;16.23;;;15.20;57.00;;;;;;6278420;22;20171;-96
2022/05/02 01:07:33;;;;;;;22.67;16.13;;;15.20;57.00;;;;;;6277784;22;20505;-96
2022/05/02 01:10:06;;;;;;;19.40;15.07;;;15.20;57.20;;;;;;6278313;22;20258;-96
2022/05/02 01:12:37;;;;;;;20.57;15.50;;;15.20;57.20;;;;;;6247651;23;20181;-96
2022/05/02 01:15:07;;;;;;;20.50;15.27;;;15.20;57.10;;;;;;6245677;23;20202;-96
2022/05/02 01:17:37;;;;;;;22.67;16.87;;;15.20;57.20;;;;;;6246948;23;20172;-96
2022/05/02 01:20:13;;;;;;;24.33;16.07;;;15.20;57.30;;;;;;6247312;23;20173;-95
2022/05/02 01:22:43;;;;;;;24.57;17.30;;;15.20;57.40;;;;;;6249676;23;20197;-96
2022/05/02 01:25:11;;;;;;;22.53;16.70;;;15.20;57.10;;;;;;6252601;23;20262;-96
2022/05/02 01:27:39;;;;;;;21.23;17.20;;;15.20;57.20;;;;;;6248606;23;20178;-96
2022/05/02 01:30:09;;;;;;;19.63;15.83;;;15.20;57.10;;;;;;6248119;23;20216;-96
2022/05/02 01:32:42;;;;;;;23.77;18.43;;;15.20;57.30;;;;;;6247490;23;20201;-95
2022/05/02 01:36:07;;;;;;;22.07;16.73;;;15.20;57.40;;;;;;6246970;23;20201;-96
2022/05/02 01:38:44;;;;;;;25.37;17.83;;;15.20;57.50;;;;;;6245474;23;20257;-96
2022/05/02 01:41:12;;;;;;;25.90;17.33;;;15.20;57.40;;;;;;6247810;23;20608;-96
2022/05/02 01:43:40;;;;;;;22.80;17.07;;;15.20;57.00;;;;;;6244639;23;20290;-95
2022/05/02 01:46:48;;;;;;;23.97;18.00;;;15.20;57.20;;;;;;6246756;23;20176;-95
2022/05/02 01:49:16;;;;;;;23.10;18.20;;;15.20;57.70;;;;;;6241492;23;20225;-96
2022/05/02 01:51:45;;;;;;;30.47;18.50;;;15.20;57.30;;;;;;6246081;23;20191;-95
2022/05/02 01:54:17;;;;;;;21.93;16.73;;;15.20;57.50;;;;;;6246479;23;20251;-96
2022/05/02 01:56:47;;;;;;;31.17;19.17;;;15.20;57.60;;;;;;6246871;23;20178;-96
2022/05/02 01:59:14;;;;;;;25.83;17.93;;;15.20;57.50;;;;;;6246622;23;20175;-96
2022/05/02 02:01:42;;;;;;;29.00;20.07;;;15.20;57.60;;;;;;6244433;22;20613;-96
2022/05/02 02:06:58;;;;;;;32.07;20.97;;;15.20;57.80;;;;;;6244262;23;20165;-96
2022/05/02 02:12:43;;;;;;;25.17;19.03;;;15.20;57.90;;;;;;6246263;23;20174;-95
2022/05/02 02:15:14;;;;;;;25.23;18.97;;;15.20;57.80;;;;;;6247087;23;20656;-96
2022/05/02 02:17:43;;;;;;;26.47;19.20;;;15.20;57.60;;;;;;6248797;23;20179;-96
2022/05/02 02:20:12;;;;;;;25.57;19.10;;;15.20;57.80;;;;;;6250599;23;20181;-96
2022/05/02 02:22:40;;;;;;;29.03;20.47;;;15.20;57.90;;;;;;6244889;23;20169;-96
2022/05/02 02:25:12;;;;;;;29.27;21.17;;;15.20;57.90;;;;;;6244871;23;20664;-95
2022/05/02 02:27:40;;;;;;;24.50;19.40;;;15.20;58.20;;;;;;6247383;23;20179;-96
2022/05/02 02:30:09;;;;;;;22.97;18.30;;;15.20;57.70;;;;;;6247207;23;20165;-96
2022/05/02 02:32:40;;;;;;;28.77;20.93;;;15.20;57.60;;;;;;6254355;23;20234;-96
2022/05/02 02:35:10;;;;;;;31.17;21.03;;;15.20;57.90;;;;;;6249609;23;20203;-96
2022/05/02 02:37:39;;;;;;;26.17;19.63;;;15.20;58.00;;;;;;6247710;23;20200;-96
2022/05/02 02:40:09;;;;;;;27.23;20.70;;;15.20;57.90;;;;;;6246912;23;20175;-96
2022/05/02 02:43:09;;;;;;;24.97;19.87;;;15.20;58.00;;;;;;6246087;23;20194;-96
2022/05/02 02:45:41;;;;;;;25.87;19.30;;;15.20;58.30;;;;;;6250005;23;20170;-96
2022/05/02 02:48:13;;;;;;;29.67;21.23;;;15.20;58.00;;;;;;6247824;23;20269;-96
2022/05/02 02:50:45;;;;;;;26.20;20.23;;;15.10;58.00;;;;;;6248800;23;20194;-96
2022/05/02 02:53:51;;;;;;;25.60;19.47;;;15.10;57.70;;;;;;6248451;23;20608;-96
2022/05/02 02:56:22;;;;;;;28.63;20.87;;;15.10;58.20;;;;;;6240015;23;20173;-96
2022/05/02 02:58:52;;;;;;;31.00;21.20;;;15.10;57.90;;;;;;6266086;23;20238;-96
2022/05/02 03:01:20;;;;;;;27.47;20.67;;;15.10;57.90;;;;;;6263605;22;20249;-95
2022/05/02 03:03:49;;;;;;;31.20;22.33;;;15.10;57.80;;;;;;6255600;23;20230;-96
2022/05/02 03:06:21;;;;;;;30.87;21.13;;;15.10;57.70;;;;;;6254432;23;20172;-96
2022/05/02 03:08:55;;;;;;;32.57;23.70;;;15.10;58.00;;;;;;6249755;23;20260;-96
2022/05/02 03:11:23;;;;;;;28.63;21.07;;;15.00;58.20;;;;;;6246769;23;20193;-96
2022/05/02 03:13:55;;;;;;;26.70;20.50;;;15.00;58.20;;;;;;6247818;23;20225;-95
2022/05/02 03:16:28;;;;;;;27.20;20.97;;;15.00;58.40;;;;;;6247223;23;20681;-96
2022/05/02 03:19:05;;;;;;;27.90;20.93;;;14.90;58.50;;;;;;6246539;23;20171;-96
2022/05/02 03:21:34;;;;;;;30.67;21.67;;;14.90;58.70;;;;;;6250535;23;20167;-95
2022/05/02 03:24:01;;;;;;;29.43;21.77;;;14.90;58.70;;;;;;6262875;23;20213;-95
2022/05/02 03:26:28;;;;;;;33.80;20.97;;;14.90;59.20;;;;;;6267141;23;20226;-95
2022/05/02 03:28:57;;;;;;;33.97;23.50;;;14.80;58.70;;;;;;6251336;22;20211;-96
2022/05/02 03:32:21;;;;;;;29.70;21.53;;;14.70;58.90;;;;;;6264353;23;20174;-96
2022/05/02 03:34:49;;;;;;;30.67;20.97;;;14.70;59.30;;;;;;6250146;23;20202;-96
2022/05/02 03:37:17;;;;;;;26.50;21.93;;;14.70;58.80;;;;;;6252325;23;20163;-95
2022/05/02 03:39:52;;;;;;;32.17;22.20;;;14.70;59.10;;;;;;6251092;23;20171;-96
2022/05/02 03:45:36;;;;;;;25.27;19.47;;;14.60;59.30;;;;;;6227746;23;20178;-96
2022/05/02 03:48:06;;;;;;;26.60;19.97;;;14.60;59.40;;;;;;6250965;23;20246;-96
2022/05/02 03:50:34;;;;;;;30.93;21.63;;;14.60;59.60;;;;;;6250840;23;20166;-96
2022/05/02 03:56:12;;;;;;;31.23;21.67;;;14.60;60.20;;;;;;6248682;23;20181;-96
2022/05/02 03:58:43;;;;;;;31.50;21.97;;;14.60;59.80;;;;;;6246376;23;20623;-96
2022/05/02 04:01:13;;;;;;;30.43;21.53;;;14.50;59.60;;;;;;6245621;23;20185;-96
2022/05/02 04:03:41;;;;;;;30.50;21.83;;;14.50;59.90;;;;;;6246114;23;20207;-96
2022/05/02 04:06:53;;;;;;;32.50;21.77;;;14.50;59.90;;;;;;6245832;23;20175;-96
2022/05/02 04:09:21;;;;;;;31.33;21.97;;;14.50;60.30;;;;;;6245525;23;20495;-96
2022/05/02 04:11:48;;;;;;;28.57;21.20;;;14.50;59.90;;;;;;6247066;23;20194;-96
2022/05/02 04:14:16;;;;;;;29.50;22.20;;;14.50;59.90;;;;;;6247085;23;20164;-94
2022/05/02 04:16:47;;;;;;;29.17;22.47;;;14.50;59.90;;;;;;6246722;23;20567;-95
2022/05/02 04:19:17;;;;;;;28.87;21.93;;;14.50;60.10;;;;;;6246634;23;20168;-96
2022/05/02 04:21:44;;;;;;;31.03;22.57;;;14.50;59.90;;;;;;6245332;23;20639;-95
2022/05/02 04:24:11;;;;;;;29.83;22.67;;;14.50;59.90;;;;;;6245108;23;20821;-95
2022/05/02 04:26:39;;;;;;;30.80;22.07;;;14.50;60.10;;;;;;6246413;23;20178;-95
2022/05/02 04:31:55;;;;;;;28.37;21.57;;;14.50;60.60;;;;;;6216773;22;20215;-96
2022/05/02 04:34:22;;;;;;;29.10;22.33;;;14.50;60.50;;;;;;6246455;23;20173;-96
2022/05/02 04:36:53;;;;;;;30.07;22.27;;;14.50;60.30;;;;;;6246742;23;20171;-96
2022/05/02 04:39:23;;;;;;;31.90;22.03;;;14.50;60.60;;;;;;6245875;23;20863;-95
2022/05/02 04:41:51;;;;;;;30.30;21.73;;;14.50;60.60;;;;;;6244853;23;20267;-95
2022/05/02 04:44:24;;;;;;;27.57;22.10;;;14.50;60.50;;;;;;6245362;23;20201;-96
2022/05/02 04:46:53;;;;;;;30.20;22.80;;;14.50;60.90;;;;;;6246225;23;20178;-95
2022/05/02 04:49:20;;;;;;;34.10;22.60;;;14.60;60.80;;;;;;6245821;23;20177;-95
2022/05/02 04:52:02;;;;;;;32.00;22.23;;;14.60;60.80;;;;;;6245541;23;20172;-94
2022/05/02 04:54:29;;;;;;;29.73;22.60;;;14.50;61.20;;;;;;6243251;23;20549;-96
2022/05/02 04:56:56;;;;;;;32.43;22.33;;;14.60;60.80;;;;;;6246663;23;20175;-95
2022/05/02 04:59:23;;;;;;;29.53;22.03;;;14.60;60.90;;;;;;6246441;23;20559;-95
2022/05/02 05:01:59;;;;;;;29.93;22.83;;;14.60;61.00;;;;;;6244236;23;20223;-93
2022/05/02 05:04:27;;;;;;;28.57;22.70;;;14.60;61.60;;;;;;6248150;23;20194;-93
2022/05/02 05:06:55;;;;;;;30.87;21.43;;;14.60;61.20;;;;;;6244664;23;20209;-94
2022/05/02 05:09:23;;;;;;;35.93;22.80;;;14.60;61.40;;;;;;6244529;23;20171;-93
2022/05/02 05:11:57;;;;;;;30.77;22.83;;;14.60;61.40;;;;;;6245405;23;20731;-94
2022/05/02 05:17:39;;;;;;;36.20;24.07;;;14.60;62.10;;;;;;6242311;23;20167;-94
2022/05/02 05:20:54;;;;;;;33.53;22.43;;;14.60;62.20;;;;;;6245653;23;20166;-94
2022/05/02 05:23:39;;;;;;;36.50;23.23;;;14.70;62.30;;;;;;6245901;23;20179;-95
2022/05/02 05:26:14;;;;;;;34.40;23.70;;;14.70;61.90;;;;;;6244471;23;20163;-94
2022/05/02 05:29:01;;;;;;;33.47;24.00;;;14.70;62.00;;;;;;6243371;23;20198;-94
2022/05/02 05:31:33;;;;;;;31.87;22.43;;;14.70;62.30;;;;;;6245499;23;20213;-94
2022/05/02 05:34:48;;;;;;;29.17;21.83;;;14.70;62.00;;;;;;6247152;23;20663;-96
2022/05/02 05:37:42;;;;;;;30.27;21.47;;;14.70;62.60;;;;;;6202847;23;20182;-95
2022/05/02 05:41:02;;;;;;;30.63;21.57;;;14.70;62.50;;;;;;6244708;23;20236;-96
2022/05/02 05:43:59;;;;;;;27.47;20.83;;;14.70;62.40;;;;;;6220592;23;20621;-94
2022/05/02 05:49:55;;;;;;;29.50;22.10;;;14.80;62.40;;;;;;6246440;22;20210;-96
2022/05/02 05:53:13;;;;;;;29.83;21.10;;;14.90;62.50;;;;;;6245716;23;20619;-96
2022/05/02 05:56:32;;;;;;;27.73;20.63;;;14.80;62.60;;;;;;6172577;23;20236;-95
2022/05/02 05:59:08;;;;;;;30.17;22.27;;;14.90;62.60;;;;;;6245241;23;20187;-94
2022/05/02 06:04:52;;;;;;;32.73;22.00;;;15.00;62.50;;;;;;6247439;22;20532;-95
2022/05/02 06:07:23;;;;;;;32.57;22.40;;;15.00;61.50;;;;;;6246688;23;20506;-96
2022/05/02 06:18:45;;;;;;;30.83;20.43;;;15.10;61.60;;;;;;6242938;23;20166;-94
2022/05/02 06:21:14;;;;;;;27.23;20.10;;;15.10;61.70;;;;;;6244460;23;20195;-95
2022/05/02 06:23:46;;;;;;;28.23;20.10;;;15.20;61.60;;;;;;6243915;23;20626;-94
2022/05/02 06:26:17;;;;;;;30.50;20.40;;;15.20;61.60;;;;;;6243030;23;20167;-94
2022/05/02 06:28:52;;;;;;;31.97;21.07;;;15.20;61.40;;;;;;6241384;23;20170;-95
2022/05/02 06:31:25;;;;;;;27.30;20.87;;;15.30;61.20;;;;;;6244259;23;20192;-93
2022/05/02 06:34:01;;;;;;;25.83;18.50;;;15.30;61.20;;;;;;6248129;23;20230;-95
2022/05/02 06:36:47;;;;;;;34.90;21.23;;;15.30;61.20;;;;;;6261006;22;20158;-95
2022/05/02 06:39:20;;;;;;;30.63;20.70;;;15.40;61.40;;;;;;6264239;23;20167;-95
2022/05/02 06:42:05;;;;;;;31.87;20.43;;;15.40;60.90;;;;;;6266441;23;20168;-95
2022/05/02 06:45:07;;;;;;;30.13;18.97;;;15.50;61.20;;;;;;6243253;23;20301;-95
2022/05/02 06:48:01;;;;;;;27.63;19.10;;;15.50;60.90;;;;;;6245607;23;20167;-95
2022/05/02 06:50:40;;;;;;;26.13;19.27;;;15.60;61.00;;;;;;6245329;23;20213;-95
2022/05/02 06:56:43;;;;;;;23.80;17.57;;;15.60;60.80;;;;;;6245110;23;20318;-95
2022/05/02 06:59:28;;;;;;;27.30;18.67;;;15.60;60.60;;;;;;6246415;23;20811;-96
2022/05/02 07:02:32;;;;;;;31.13;20.40;;;15.70;60.80;;;;;;6266385;23;20201;-95
2022/05/02 07:05:11;;;;;;;29.80;20.03;;;15.70;61.00;;;;;;6262920;23;20224;-95
2022/05/02 07:08:01;;;;;;;27.83;20.10;;;15.80;60.80;;;;;;6250754;23;20548;-94
2022/05/02 07:10:33;;;;;;;26.53;19.47;;;15.80;60.90;;;;;;6243338;23;20171;-95
2022/05/02 07:13:15;;;;;;;25.90;19.47;;;15.80;60.50;;;;;;6244741;23;20182;-95
2022/05/02 07:15:46;;;;;;;27.67;18.80;;;15.80;60.20;;;;;;6245658;23;20212;-95
2022/05/02 07:18:46;;;;;;;28.27;19.73;;;15.90;60.40;;;;;;6246916;23;20167;-95
2022/05/02 07:21:32;;;;;;;28.33;20.37;;;15.90;60.40;;;;;;6124919;23;20307;-95
2022/05/02 07:24:10;;;;;;;32.20;20.60;;;16.00;60.50;;;;;;6154474;23;20189;-95
2022/05/02 07:27:14;;;;;;;28.40;18.97;;;16.00;60.20;;;;;;6251099;23;20179;-96
2022/05/02 07:29:43;;;;;;;29.33;19.77;;;16.10;60.20;;;;;;6257019;23;20687;-94
2022/05/02 07:32:15;;;;;;;33.20;20.77;;;16.10;60.10;;;;;;6243163;23;20226;-96
2022/05/02 07:34:49;;;;;;;28.53;20.77;;;16.20;59.90;;;;;;6260913;23;20205;-96
2022/05/02 07:37:21;;;;;;;30.37;20.20;;;16.20;59.80;;;;;;6255938;23;20200;-95
2022/05/02 07:39:49;;;;;;;29.70;20.00;;;16.30;59.90;;;;;;6252885;23;20171;-94
2022/05/02 07:42:18;;;;;;;31.43;20.03;;;16.40;59.80;;;;;;6262152;23;20174;-95
2022/05/02 07:44:50;;;;;;;30.97;20.63;;;16.40;59.60;;;;;;6250706;23;20219;-92
2022/05/02 07:47:22;;;;;;;26.20;19.20;;;16.50;59.40;;;;;;6246524;23;20185;-93
2022/05/02 07:49:51;;;;;;;39.53;23.03;;;16.50;59.20;;;;;;6242611;23;20177;-94
2022/05/02 07:52:22;;;;;;;24.20;18.10;;;16.60;59.40;;;;;;6244072;23;20169;-94
2022/05/02 07:54:50;;;;;;;24.70;17.73;;;16.60;59.40;;;;;;6246370;23;20171;-94
2022/05/02 07:57:23;;;;;;;22.03;16.93;;;16.70;59.20;;;;;;6246020;23;20167;-94
2022/05/02 07:59:52;;;;;;;30.73;18.90;;;16.70;58.60;;;;;;6246512;23;20642;-94
2022/05/02 08:02:24;;;;;;;25.30;17.67;;;16.80;58.80;;;;;;6246819;23;20179;-95
2022/05/02 08:04:53;;;;;;;26.93;18.43;;;16.90;58.60;;;;;;6245040;23;20657;-95
2022/05/02 08:07:30;;;;;;;25.37;18.07;;;16.90;58.80;;;;;;6245531;23;20615;-93
2022/05/02 08:10:36;;;;;;;26.43;19.17;;;17.00;58.70;;;;;;6246960;23;20177;-94
2022/05/02 08:13:11;;;;;;;20.43;16.83;;;17.10;58.80;;;;;;6245636;23;20553;-95
2022/05/02 08:15:58;;;;;;;24.40;18.63;;;17.10;58.50;;;;;;6245149;22;20248;-95
2022/05/02 08:19:07;;;;;;;28.70;18.63;;;17.20;58.10;;;;;;6245547;23;20168;-93
2022/05/02 08:21:44;;;;;;;20.43;16.40;;;17.30;57.60;;;;;;6229183;23;20174;-94
2022/05/02 08:27:27;;;;;;;26.20;17.67;;;17.50;57.20;;;;;;6244083;23;20165;-93
2022/05/02 08:30:08;;;;;;;22.37;16.73;;;17.50;57.00;;;;;;6245218;23;20181;-94
2022/05/02 08:32:44;;;;;;;23.53;16.63;;;17.60;56.80;;;;;;6244857;23;20637;-94
2022/05/02 08:35:52;;;;;;;22.03;16.17;;;17.70;57.20;;;;;;6246390;23;20216;-95
2022/05/02 08:38:36;;;;;;;24.63;17.37;;;17.80;56.90;;;;;;6233685;23;20187;-94
2022/05/02 08:41:40;;;;;;;22.00;17.00;;;17.90;56.80;;;;;;6244127;23;20179;-94
2022/05/02 08:44:59;;;;;;;22.40;16.10;;;18.00;56.50;;;;;;6245044;23;20236;-94
2022/05/02 09:05:11;;;;;;;15.53;11.63;;;18.60;54.30;;;;;;6140011;23;20170;-95
2022/05/02 09:08:16;;;;;;;18.27;12.73;;;18.70;53.90;;;;;;6134009;23;20198;-96
2022/05/02 09:11:31;;;;;;;14.97;11.53;;;18.80;53.80;;;;;;6134327;23;20190;-96
2022/05/02 09:14:43;;;;;;;19.73;12.67;;;18.90;52.50;;;;;;6253387;23;20167;-94
2022/05/02 09:17:54;;;;;;;19.37;12.03;;;19.00;52.10;;;;;;6255569;23;20249;-96
2022/05/02 09:20:59;;;;;;;18.17;11.53;;;19.10;52.00;;;;;;6244674;23;20258;-96
2022/05/02 09:24:04;;;;;;;15.57;11.27;;;19.20;51.40;;;;;;6249586;23;20175;-94
2022/05/02 09:30:19;;;;;;;20.40;13.47;;;19.50;52.90;;;;;;6246686;23;20297;-94
2022/05/02 09:33:02;;;;;;;18.00;12.73;;;19.60;51.70;;;;;;6246184;23;20190;-96
2022/05/02 09:35:33;;;;;;;21.33;12.43;;;19.80;52.70;;;;;;6245516;23;20218;-94
2022/05/02 09:38:16;;;;;;;12.93;11.00;;;19.90;52.60;;;;;;6247140;23;20184;-96
2022/05/02 09:53:11;;;;;;;14.50;11.57;;;20.90;48.90;;;;;;6243895;22;20224;-94
2022/05/02 09:59:07;;;;;;;15.77;11.67;;;21.10;49.30;;;;;;6249805;23;20252;-93
2022/05/02 10:02:19;;;;;;;16.37;11.23;;;21.30;50.00;;;;;;6250919;23;20651;-96
2022/05/02 10:04:59;;;;;;;19.13;12.20;;;21.50;48.30;;;;;;6247693;23;20180;-95
2022/05/02 10:07:28;;;;;;;12.57;10.57;;;21.60;49.70;;;;;;6244963;23;20194;-95
2022/05/02 10:13:05;;;;;;;19.67;11.83;;;21.80;48.80;;;;;;5096986;27;20539;-93
2022/05/02 10:16:04;;;;;;;15.40;10.13;;;22.10;47.70;;;;;;5076022;28;20235;-91
2022/05/02 10:18:56;;;;;;;14.97;11.50;;;22.20;48.20;;;;;;5053219;28;20206;-94
2022/05/02 10:21:48;;;;;;;14.83;8.63;;;22.40;46.40;;;;;;5075026;28;20210;-92
2022/05/02 10:24:44;;;;;;;14.27;9.93;;;22.50;47.30;;;;;;5089606;28;20202;-95
2022/05/02 10:27:24;;;;;;;13.77;10.07;;;22.60;46.90;;;;;;5075406;28;20262;-92
2022/05/02 10:30:42;;;;;;;14.23;10.20;;;22.80;47.10;;;;;;5066992;28;20211;-96
2022/05/02 10:37:14;;;;;;;11.50;8.93;;;23.10;45.50;;;;;;5006015;28;20218;-96
2022/05/02 10:40:08;;;;;;;15.73;9.77;;;23.20;46.20;;;;;;5030904;28;20291;-94
2022/05/02 11:22:32;;;;;;;16.13;12.40;;;23.00;46.00;;;;;;5033600;28;20193;-94
2022/05/02 11:25:07;;;;;;;14.33;11.87;;;22.90;46.00;;;;;;5028815;28;20211;-95
2022/05/02 11:28:13;;;;;;;12.97;10.03;;;22.90;46.40;;;;;;5030725;28;20233;-94
2022/05/02 11:45:10;;;;;;;14.93;10.67;;;23.20;46.30;;;;;;5112871;22;20258;-94
2022/05/02 11:47:56;;;;;;;16.90;10.70;;;23.30;45.50;;;;;;5095511;28;20671;-94
2022/05/02 11:50:25;;;;;;;18.33;11.80;;;23.50;45.70;;;;;;5095208;28;20199;-95
2022/05/02 11:53:16;;;;;;;17.50;11.47;;;23.60;45.80;;;;;;5097848;28;20237;-94
2022/05/02 11:55:46;;;;;;;11.63;9.33;;;23.70;45.10;;;;;;5078092;28;20230;-95
2022/05/02 11:58:26;;;;;;;20.40;11.90;;;23.90;45.50;;;;;;5078955;28;20207;-91
2022/05/02 12:01:29;;;;;;;14.57;10.37;;;24.00;45.30;;;;;;5077945;28;20225;-94
2022/05/02 12:04:05;;;;;;;10.53;9.30;;;24.10;44.90;;;;;;5081227;28;20643;-95
2022/05/02 12:06:44;;;;;;;14.00;10.70;;;24.30;44.50;;;;;;5095708;28;20199;-94
2022/05/02 12:09:23;;;;;;;13.57;10.07;;;24.40;44.40;;;;;;5091804;28;20210;-96
2022/05/02 12:12:24;;;;;;;14.33;10.80;;;24.40;44.10;;;;;;5091529;28;20620;-95
2022/05/02 12:15:31;;;;;;;14.10;9.83;;;24.60;43.40;;;;;;5096424;28;20609;-93
2022/05/02 12:18:07;;;;;;;13.00;9.57;;;24.70;43.30;;;;;;5101247;28;20287;-95
2022/05/02 12:20:54;;;;;;;16.60;11.37;;;24.80;43.10;;;;;;5101345;28;20206;-94
2022/05/02 12:23:27;;;;;;;16.57;11.33;;;24.80;42.90;;;;;;5084353;28;20214;-93
2022/05/02 12:26:01;;;;;;;11.97;10.03;;;24.80;42.70;;;;;;5100727;28;20207;-94
2022/05/02 12:28:45;;;;;;;11.30;10.07;;;24.90;43.20;;;;;;5101169;28;20656;-96
2022/05/02 12:31:35;;;;;;;14.63;11.10;;;24.90;42.50;;;;;;5101460;28;20230;-94
2022/05/02 12:34:17;;;;;;;14.30;11.07;;;25.00;42.60;;;;;;5085889;28;20286;-95
2022/05/02 12:36:57;;;;;;;13.70;10.87;;;25.00;41.40;;;;;;5093302;28;20229;-93
2022/05/02 12:39:47;;;;;;;13.93;9.63;;;25.10;41.40;;;;;;5080415;28;20215;-95
2022/05/02 12:42:17;;;;;;;13.50;10.33;;;25.10;42.00;;;;;;5088340;28;20195;-95
2022/05/02 12:45:13;;;;;;;15.40;10.73;;;25.20;42.60;;;;;;5099161;28;20203;-95
2022/05/02 12:47:46;;;;;;;14.90;11.03;;;25.20;41.40;;;;;;5094583;28;20218;-94
2022/05/02 12:50:27;;;;;;;11.53;9.50;;;25.30;41.60;;;;;;5100712;28;20207;-95
2022/05/02 12:53:00;;;;;;;11.57;9.93;;;25.30;41.20;;;;;;5099780;28;20226;-95
2022/05/02 12:55:38;;;;;;;14.80;10.97;;;25.30;41.10;;;;;;5097722;28;20657;-96
2022/05/02 13:01:01;;;;;;;11.70;10.30;;;25.40;41.30;;;;;;5099303;28;20194;-94
2022/05/02 13:03:39;;;;;;;11.57;9.50;;;25.40;40.10;;;;;;5093888;28;20228;-94
2022/05/02 13:06:09;;;;;;;16.93;10.97;;;25.40;40.60;;;;;;5100296;28;20230;-93
2022/05/02 13:08:41;;;;;;;15.77;12.57;;;25.50;40.40;;;;;;5097328;28;20326;-91
2022/05/02 13:11:11;;;;;;;17.43;12.10;;;25.50;40.30;;;;;;5093528;28;20202;-94
2022/05/02 13:13:45;;;;;;;14.50;11.03;;;25.50;40.20;;;;;;5084563;28;20214;-92
2022/05/02 13:16:25;;;;;;;16.07;11.27;;;25.50;40.20;;;;;;5095224;28;20232;-95
2022/05/02 13:19:00;;;;;;;15.63;11.10;;;25.50;39.70;;;;;;5092058;28;20566;-93
2022/05/02 13:21:29;;;;;;;13.17;10.47;;;25.50;39.80;;;;;;5096269;28;20296;-95
2022/05/02 13:24:09;;;;;;;14.27;10.20;;;25.50;39.70;;;;;;5098060;28;20240;-95
2022/05/02 13:27:07;;;;;;;14.37;11.00;;;25.50;39.30;;;;;;5098065;28;20273;-93
2022/05/02 13:32:37;;;;;;;14.00;10.73;;;25.50;40.00;;;;;;5087726;28;20231;-95
2022/05/02 13:35:11;;;;;;;8.67;7.60;;;25.50;40.20;;;;;;5079142;28;20625;-96
2022/05/02 13:41:19;;;;;;;10.13;8.10;;;25.50;39.30;;;;;;5068713;28;20203;-95
2022/05/02 13:44:08;;;;;;;9.73;7.33;;;25.60;39.10;;;;;;5093395;28;20639;-92
2022/05/02 13:47:51;;;;;;;11.83;8.17;;;25.60;39.40;;;;;;5094785;28;20648;-93
2022/05/02 13:50:27;;;;;;;8.37;6.50;;;25.60;38.60;;;;;;5092973;28;20206;-94
2022/05/02 13:55:59;;;;;;;8.17;6.23;;;25.70;38.30;;;;;;5087433;28;20217;-95
2022/05/02 13:58:47;;;;;;;9.20;6.93;;;25.70;37.60;;;;;;5105063;28;20210;-96
2022/05/02 14:04:38;;;;;;;9.70;6.53;;;25.70;37.80;;;;;;5107775;28;20260;-95
2022/05/02 14:07:18;;;;;;;5.90;5.30;;;25.60;38.20;;;;;;5103920;28;20201;-93
2022/05/02 14:10:06;;;;;;;11.30;6.77;;;25.60;38.30;;;;;;5104137;28;20233;-95
2022/05/02 14:12:46;;;;;;;12.17;6.57;;;25.50;36.60;;;;;;5108685;28;20226;-95
2022/05/02 14:15:24;;;;;;;7.43;5.57;;;25.50;37.70;;;;;;5105800;28;20218;-95
2022/05/02 14:18:21;;;;;;;12.63;6.23;;;25.40;37.90;;;;;;5086992;28;20195;-94
2022/05/02 14:21:01;;;;;;;8.57;5.47;;;25.40;38.50;;;;;;5089071;28;20202;-96
2022/05/02 14:23:47;;;;;;;10.77;7.10;;;25.30;38.40;;;;;;5087574;28;20218;-95
2022/05/02 14:29:03;;;;;;;8.23;4.47;;;25.30;37.80;;;;;;5125248;22;20728;-95
2022/05/02 14:31:44;;;;;;;6.53;5.20;;;25.20;38.40;;;;;;5117047;28;20225;-96
2022/05/02 14:34:14;;;;;;;8.53;4.87;;;25.20;37.40;;;;;;5118816;28;20280;-96
2022/05/02 14:36:45;;;;;;;7.47;4.67;;;25.20;37.80;;;;;;5121640;28;20206;-94
2022/05/02 14:39:22;;;;;;;6.07;4.67;;;25.10;37.70;;;;;;5121937;28;20205;-96
2022/05/02 14:42:01;;;;;;;11.23;5.73;;;25.10;38.20;;;;;;5121656;28;20182;-96
2022/05/02 14:44:38;;;;;;;8.83;5.90;;;25.00;37.70;;;;;;5119857;28;20192;-96
2022/05/02 14:47:08;;;;;;;11.13;5.83;;;24.90;37.40;;;;;;5130434;27;20194;-95
2022/05/02 14:49:37;;;;;;;7.27;4.93;;;24.90;37.80;;;;;;5127925;28;20194;-95
2022/05/02 14:52:14;;;;;;;5.40;4.60;;;24.80;38.00;;;;;;5105415;28;20225;-95
2022/05/02 14:54:42;;;;;;;6.07;4.30;;;24.80;37.80;;;;;;5118558;28;20723;-95
2022/05/02 14:57:15;;;;;;;5.90;4.40;;;24.70;38.00;;;;;;5103694;28;20215;-96
2022/05/02 15:00:01;;;;;;;9.93;5.33;;;24.70;37.60;;;;;;5106610;28;20300;-96
2022/05/02 15:02:36;;;;;;;7.93;4.80;;;24.50;37.30;;;;;;5119358;28;20206;-94
2022/05/02 15:05:07;;;;;;;9.60;5.37;;;24.50;37.90;;;;;;5118702;28;20212;-93
2022/05/02 15:07:46;;;;;;;9.37;5.37;;;24.40;37.80;;;;;;5118237;27;20200;-93
2022/05/02 15:10:35;;;;;;;6.80;4.13;;;24.30;37.90;;;;;;5116297;27;20232;-92
2022/05/02 15:16:52;;;;;;;8.93;4.67;;;24.00;38.00;;;;;;5113730;28;20211;-95
2022/05/02 15:22:11;;;;;;;9.07;5.33;;;23.70;38.10;;;;;;5122645;22;20261;-94
2022/05/02 15:25:04;;;;;;;11.17;5.23;;;23.60;38.40;;;;;;5116448;28;20201;-96
2022/05/02 15:39:04;;;;;;;11.77;6.60;;;23.00;39.30;;;;;;5116977;28;20244;-93
2022/05/02 15:42:05;;;;;;;6.67;5.43;;;22.90;39.40;;;;;;5111423;28;20581;-95
2022/05/02 15:44:50;;;;;;;8.23;4.97;;;22.80;39.40;;;;;;5122516;28;20198;-95
2022/05/02 15:47:26;;;;;;;11.60;6.37;;;22.70;39.10;;;;;;5112712;28;20196;-95
2022/05/02 15:50:12;;;;;;;7.17;5.10;;;22.70;39.60;;;;;;5102861;28;20204;-94
2022/05/02 15:53:22;;;;;;;8.33;6.13;;;22.60;39.80;;;;;;5102390;28;20219;-94
2022/05/02 15:55:59;;;;;;;10.63;6.00;;;22.50;40.00;;;;;;5105162;28;20213;-92
2022/05/02 15:59:00;;;;;;;11.43;6.80;;;22.40;40.20;;;;;;5105494;28;20288;-92
2022/05/02 16:01:36;;;;;;;10.33;5.97;;;22.30;40.10;;;;;;5102017;28;20220;-94
2022/05/02 16:04:36;;;;;;;7.67;5.23;;;22.30;40.20;;;;;;5110814;28;20646;-95
2022/05/02 16:12:47;;;;;;;8.07;5.57;;;22.10;40.30;;;;;;5144051;27;20354;-94
2022/05/02 16:18:14;;;;;;;10.97;5.40;;;22.00;40.60;;;;;;5124662;22;20302;-94
2022/05/02 16:20:46;;;;;;;9.70;5.83;;;22.00;40.90;;;;;;5101071;28;20237;-94
2022/05/02 16:23:15;;;;;;;15.03;7.43;;;22.00;40.90;;;;;;5096922;28;20321;-92
2022/05/02 16:25:49;;;;;;;7.40;5.80;;;21.90;40.90;;;;;;5096205;28;20201;-94
2022/05/02 16:31:10;;;;;;;9.83;5.13;;;21.90;41.10;;;;;;5122370;28;20282;-95
2022/05/02 16:33:38;;;;;;;7.53;5.07;;;21.90;41.30;;;;;;5124610;28;20240;-94
2022/05/02 16:36:07;;;;;;;10.43;5.80;;;22.00;41.40;;;;;;5103588;28;20210;-95
2022/05/02 16:41:42;;;;;;;9.13;5.10;;;22.00;41.20;;;;;;5137369;22;20237;-96
2022/05/02 16:44:34;;;;;;;8.73;5.47;;;22.00;41.20;;;;;;5129323;28;20201;-96